Terminal Aerodrome Forecast
Issued by NWS Mt. Holly, NJ

Current Version | Previous Version | Text Only | Print | Product List | Glossary On
Versions: 1 2 3 4 5 6 7 8 9 10 11 12 13 14 15 16 17 18 19 20 21 22 23 24 25 26 27 28 29 30 31 32 33 34 35 36 37 38 39 40 41 42 43 44 45 46
373
FTUS41 KPHI 271736
TAFABE
TAF
KABE 271736Z 2718/2818 VRB05KT 6SM BR OVC005
     FM272200 VRB05KT P6SM BKN015
     FM280300 VRB04KT 3SM BR OVC007
     FM280500 VRB03KT 1SM BR OVC003
     FM281000 VRB05KT 1SM -SHRA BR OVC003
     FM281400 VRB05KT 4SM BR OVC005=

USA.gov is the U.S. government's official web portal to all federal, state and local government web resources and services.